createdAt,value
2022-10-04T00:00:26.797Z,6.78
2022-10-04T00:03:08.044Z,6.72
2022-10-04T00:05:36.696Z,6.90
2022-10-04T00:08:27.574Z,7.32
2022-10-04T00:11:03.645Z,6.70
2022-10-04T00:13:32.606Z,8.13
2022-10-04T00:16:01.180Z,7.60
2022-10-04T00:18:32.926Z,7.78
2022-10-04T00:21:02.367Z,6.65
2022-10-04T00:23:38.336Z,7.20
2022-10-04T00:26:26.762Z,7.10
2022-10-04T00:28:55.498Z,7.15
2022-10-04T00:31:25.393Z,7.75
2022-10-04T00:33:56.448Z,8.40
2022-10-04T00:36:24.481Z,7.38
2022-10-04T00:39:14.255Z,6.47
2022-10-04T00:41:48.063Z,7.25
2022-10-04T00:46:45.143Z,6.95
2022-10-04T00:49:14.186Z,7.93
2022-10-04T00:51:44.929Z,6.68
2022-10-04T00:54:15.844Z,8.13
2022-10-04T00:56:52.423Z,8.85
2022-10-04T00:59:42.926Z,7.55
2022-10-04T01:02:19.791Z,7.43
2022-10-04T01:04:57.853Z,7.00
2022-10-04T01:07:40.510Z,7.30
2022-10-04T01:10:11.568Z,7.15
2022-10-04T01:12:48.454Z,6.75
2022-10-04T01:15:29.405Z,6.60
2022-10-04T01:18:09.292Z,7.28
2022-10-04T01:20:58.998Z,8.68
2022-10-04T01:23:33.201Z,6.65
2022-10-04T01:26:01.472Z,8.10
2022-10-04T01:28:30.089Z,6.90
2022-10-04T01:30:58.462Z,6.68
2022-10-04T01:33:27.127Z,7.68
2022-10-04T01:35:55.783Z,6.60
2022-10-04T01:38:24.133Z,6.85
2022-10-04T01:40:57.244Z,7.53
2022-10-04T01:43:29.663Z,6.93
2022-10-04T01:46:02.202Z,6.75
2022-10-04T01:48:36.136Z,7.13
2022-10-04T01:51:09.352Z,6.93
2022-10-04T01:53:50.578Z,7.07
2022-10-04T01:56:22.799Z,6.82
2022-10-04T01:58:52.324Z,6.95
2022-10-04T02:01:23.695Z,8.02
2022-10-04T02:03:55.327Z,7.05
2022-10-04T02:06:26.339Z,6.97
2022-10-04T02:08:57.536Z,7.63
2022-10-04T02:11:31.272Z,6.80
2022-10-04T02:14:15.724Z,7.22
2022-10-04T02:16:46.909Z,7.35
2022-10-04T02:19:15.852Z,6.90
2022-10-04T02:21:44.706Z,7.22
2022-10-04T02:24:14.287Z,7.30
2022-10-04T02:26:49.794Z,8.25
2022-10-04T02:29:20.185Z,7.40
2022-10-04T02:32:10.111Z,7.97
2022-10-04T02:34:41.177Z,7.60
2022-10-04T02:37:12.399Z,7.50
2022-10-04T02:39:48.810Z,8.10
2022-10-04T02:42:53.316Z,8.18
2022-10-04T02:45:25.335Z,7.30
2022-10-04T02:48:01.884Z,8.60
2022-10-04T02:50:35.457Z,7.57
2022-10-04T02:53:12.813Z,8.85
2022-10-04T02:55:43.552Z,8.93
2022-10-04T02:58:15.347Z,8.65
2022-10-04T03:00:56.827Z,9.05
2022-10-04T03:03:38.236Z,9.13
2022-10-04T03:06:14.224Z,7.75
2022-10-04T03:08:45.069Z,8.65
2022-10-04T03:11:14.773Z,7.80
2022-10-04T03:13:46.554Z,9.35
2022-10-04T03:16:15.048Z,7.80
2022-10-04T03:18:43.981Z,8.65
2022-10-04T03:21:14.623Z,8.55
2022-10-04T03:23:44.018Z,8.93
2022-10-04T03:26:31.096Z,8.48
2022-10-04T03:28:59.927Z,9.00
2022-10-04T03:31:29.752Z,8.80
2022-10-04T03:33:58.891Z,8.85
2022-10-04T03:36:28.130Z,9.20
2022-10-04T03:38:57.136Z,9.18
2022-10-04T03:41:26.300Z,8.93
2022-10-04T03:43:56.029Z,9.70
2022-10-04T03:46:25.509Z,8.40
2022-10-04T03:48:54.995Z,8.85
2022-10-04T03:51:24.761Z,9.27
2022-10-04T03:53:54.504Z,9.48
2022-10-04T03:56:26.535Z,9.25
2022-10-04T03:58:55.035Z,9.85
2022-10-04T04:01:27.231Z,8.52
2022-10-04T04:04:01.677Z,8.73
2022-10-04T04:06:36.075Z,9.88
2022-10-04T04:09:06.432Z,9.00
2022-10-04T04:11:36.707Z,9.38
2022-10-04T04:14:09.747Z,9.23
2022-10-04T04:16:38.586Z,10.98
2022-10-04T04:19:14.140Z,9.48
2022-10-04T04:21:44.392Z,10.82
2022-10-04T04:24:19.480Z,10.98
2022-10-04T04:29:24.069Z,9.30
2022-10-04T04:32:16.906Z,9.90
2022-10-04T04:34:58.195Z,9.70
2022-10-04T04:37:26.442Z,9.48
2022-10-04T04:39:56.408Z,9.35
2022-10-04T04:42:35.986Z,11.18
2022-10-04T04:45:14.961Z,9.68
2022-10-04T04:47:53.682Z,10.52
2022-10-04T04:50:23.798Z,11.55
2022-10-04T04:53:00.207Z,11.27
2022-10-04T04:56:02.402Z,11.45
2022-10-04T04:58:42.474Z,11.43
2022-10-04T05:01:18.250Z,11.85
2022-10-04T05:04:12.389Z,9.70
2022-10-04T05:06:41.352Z,8.48
2022-10-04T05:09:25.717Z,9.10
2022-10-04T05:11:55.913Z,9.18
2022-10-04T05:14:25.811Z,8.48
2022-10-04T05:16:55.424Z,8.10
2022-10-04T05:19:27.539Z,7.85
2022-10-04T05:21:56.983Z,7.20
2022-10-04T05:24:28.837Z,8.88
2022-10-04T05:27:02.526Z,8.20
2022-10-04T05:29:36.184Z,8.23
2022-10-04T05:32:24.791Z,7.72
2022-10-04T05:34:53.005Z,7.80
2022-10-04T05:37:40.269Z,8.70
2022-10-04T05:40:14.231Z,7.10
2022-10-04T05:42:45.239Z,8.20
2022-10-04T05:45:25.080Z,8.35
2022-10-04T05:47:54.775Z,7.93
2022-10-04T05:50:42.849Z,7.97
2022-10-04T05:53:11.388Z,7.47
2022-10-04T05:55:53.032Z,7.60
2022-10-04T05:58:44.211Z,7.93
2022-10-04T06:01:16.367Z,8.18
2022-10-04T06:03:44.515Z,8.23
2022-10-04T06:06:25.332Z,8.07
2022-10-04T06:09:19.701Z,7.97
2022-10-04T06:12:01.186Z,6.82
2022-10-04T06:14:45.839Z,7.23
2022-10-04T06:17:17.087Z,7.63
2022-10-04T06:20:03.472Z,6.82
2022-10-04T06:22:33.242Z,6.97
2022-10-04T06:25:06.428Z,6.85
2022-10-04T06:27:50.340Z,6.85
2022-10-04T06:30:20.545Z,7.18
2022-10-04T06:33:00.133Z,6.95
2022-10-04T06:35:30.567Z,6.15
2022-10-04T06:37:58.397Z,6.30
2022-10-04T06:40:41.584Z,6.78
2022-10-04T06:43:12.247Z,6.47
2022-10-04T06:45:46.071Z,6.30
2022-10-04T06:50:42.366Z,6.25
2022-10-04T06:53:15.524Z,6.57
2022-10-04T06:55:44.047Z,6.40
2022-10-04T06:58:12.194Z,5.72
2022-10-04T07:00:55.196Z,5.93
2022-10-04T07:03:27.681Z,5.83
2022-10-04T07:05:58.991Z,5.80
2022-10-04T07:08:48.297Z,5.50
2022-10-04T07:11:16.549Z,6.40
2022-10-04T07:14:07.829Z,6.10
2022-10-04T07:16:44.060Z,6.68
2022-10-04T07:19:22.092Z,5.68
2022-10-04T07:21:51.233Z,6.53
2022-10-04T07:24:34.373Z,6.60
2022-10-04T07:27:04.048Z,5.68
2022-10-04T07:29:35.200Z,5.88
2022-10-04T07:32:05.547Z,6.10
2022-10-04T07:34:37.221Z,6.07
2022-10-04T07:37:12.984Z,5.70
2022-10-04T07:39:43.066Z,5.82
2022-10-04T07:42:30.322Z,6.32
2022-10-04T07:45:03.478Z,5.75
2022-10-04T07:47:39.320Z,5.22
2022-10-04T07:50:26.016Z,4.80
2022-10-04T07:53:00.627Z,5.40
2022-10-04T07:55:47.645Z,5.75
2022-10-04T07:58:24.811Z,6.10
2022-10-04T08:00:59.924Z,5.28
2022-10-04T08:03:36.406Z,5.65
2022-10-04T08:06:09.760Z,5.75
2022-10-04T08:08:53.208Z,5.07
2022-10-04T08:11:24.106Z,5.93
2022-10-04T08:13:52.313Z,5.63
2022-10-04T08:16:31.896Z,5.40
2022-10-04T08:19:12.534Z,5.70
2022-10-04T08:21:45.068Z,5.43
2022-10-04T08:24:22.447Z,6.15
2022-10-04T08:27:13.148Z,5.53
2022-10-04T08:29:43.223Z,5.57
2022-10-04T08:32:30.082Z,5.78
2022-10-04T08:35:06.642Z,5.57
2022-10-04T08:37:54.158Z,6.45
2022-10-04T08:40:25.011Z,6.68
2022-10-04T08:43:13.237Z,7.82
2022-10-04T08:45:57.253Z,7.30
2022-10-04T08:49:01.035Z,7.38
2022-10-04T08:51:32.309Z,6.63
2022-10-04T08:54:18.513Z,6.93
2022-10-04T08:56:52.650Z,8.35
2022-10-04T09:02:06.871Z,6.25
2022-10-04T09:04:34.700Z,5.97
2022-10-04T09:07:15.140Z,6.25
2022-10-04T09:09:46.442Z,5.10
2022-10-04T09:12:21.037Z,5.88
2022-10-04T09:14:59.155Z,6.38
2022-10-04T09:17:36.457Z,5.57
2022-10-04T09:20:37.716Z,5.53
2022-10-04T09:23:15.790Z,5.65
2022-10-04T09:26:06.348Z,5.70
2022-10-04T09:28:34.567Z,5.82
2022-10-04T09:31:09.604Z,5.35
2022-10-04T09:33:56.335Z,5.30
2022-10-04T09:36:41.295Z,5.80
2022-10-04T09:39:30.983Z,5.60
2022-10-04T09:42:15.036Z,4.70
2022-10-04T09:44:54.606Z,4.57
2022-10-04T09:47:31.170Z,5.50
2022-10-04T09:50:20.604Z,5.00
2022-10-04T09:52:57.229Z,5.28
2022-10-04T09:55:34.260Z,5.20
2022-10-04T09:58:03.211Z,4.60
2022-10-04T10:00:37.804Z,5.85
2022-10-04T10:03:16.255Z,5.25
2022-10-04T10:05:53.469Z,4.85
2022-10-04T10:08:42.414Z,5.15
2022-10-04T10:11:40.840Z,5.25
2022-10-04T10:14:20.932Z,5.80
2022-10-04T10:16:48.945Z,5.05
2022-10-04T10:19:34.331Z,5.07
2022-10-04T10:22:02.416Z,4.93
2022-10-04T10:24:30.657Z,4.20
2022-10-04T10:27:09.702Z,4.40
2022-10-04T10:29:47.047Z,4.43
2022-10-04T10:32:15.254Z,5.40
2022-10-04T10:34:45.852Z,6.20
2022-10-04T10:37:40.852Z,5.82
2022-10-04T10:40:24.012Z,4.15
2022-10-04T10:42:56.180Z,4.25
2022-10-04T10:45:24.057Z,4.03
2022-10-04T10:47:51.905Z,4.15
2022-10-04T10:50:27.303Z,3.80
2022-10-04T10:53:14.178Z,3.67
2022-10-04T10:55:57.360Z,4.38
2022-10-04T10:58:44.172Z,3.88
2022-10-04T11:01:30.963Z,3.30
2022-10-04T11:04:12.418Z,3.17
2022-10-04T11:06:40.473Z,3.70
2022-10-04T11:09:22.814Z,3.95
2022-10-04T11:12:09.210Z,3.78
2022-10-04T11:14:48.123Z,4.10
2022-10-04T11:17:34.848Z,2.92
2022-10-04T11:20:15.945Z,2.90
2022-10-04T11:22:52.863Z,3.72
2022-10-04T11:25:24.832Z,3.25
2022-10-04T11:28:12.779Z,3.97
2022-10-04T11:30:59.023Z,3.53
2022-10-04T11:33:27.027Z,3.25
2022-10-04T11:36:13.818Z,2.67
2022-10-04T11:39:02.575Z,3.10
2022-10-04T11:41:42.656Z,3.08
2022-10-04T11:44:26.508Z,3.00
2022-10-04T11:47:06.957Z,3.88
2022-10-04T11:49:56.608Z,3.35
2022-10-04T11:52:43.129Z,3.25
2022-10-04T11:55:31.240Z,5.10
2022-10-04T11:57:59.344Z,3.35
2022-10-04T12:00:33.975Z,3.72
2022-10-04T12:03:10.770Z,3.65
2022-10-04T12:05:38.928Z,3.13
2022-10-04T12:08:07.093Z,3.13
2022-10-04T12:10:36.626Z,3.47
2022-10-04T12:13:19.993Z,4.30
2022-10-04T12:16:01.470Z,3.08
2022-10-04T12:18:41.080Z,2.95
2022-10-04T12:21:35.948Z,3.33
2022-10-04T12:24:21.210Z,3.63
2022-10-04T12:26:55.711Z,3.47
2022-10-04T12:29:36.354Z,3.10
2022-10-04T12:32:10.676Z,3.63
2022-10-04T12:34:38.549Z,3.20
2022-10-04T12:37:23.849Z,3.45
2022-10-04T12:40:04.711Z,3.40
2022-10-04T12:42:40.392Z,2.95
2022-10-04T12:45:21.464Z,2.90
2022-10-04T12:47:55.239Z,2.70
2022-10-04T12:52:55.304Z,3.70
2022-10-04T12:55:43.266Z,3.40
2022-10-04T12:58:32.160Z,3.53
2022-10-04T13:01:06.512Z,3.10
2022-10-04T13:03:53.154Z,3.25
2022-10-04T13:06:24.081Z,3.22
2022-10-04T13:09:07.432Z,3.78
2022-10-04T13:11:54.357Z,3.50
2022-10-04T13:14:28.188Z,3.30
2022-10-04T13:19:57.215Z,3.38
2022-10-04T13:22:56.057Z,2.90
2022-10-04T13:25:23.682Z,3.50
2022-10-04T13:27:51.642Z,3.40
2022-10-04T13:30:21.799Z,3.22
2022-10-04T13:33:03.828Z,3.08
2022-10-04T13:35:36.981Z,2.90
2022-10-04T13:38:08.179Z,3.07
2022-10-04T13:40:54.849Z,3.38
2022-10-04T13:43:43.821Z,3.03
2022-10-04T13:46:30.414Z,3.38
2022-10-04T13:49:06.186Z,3.65
2022-10-04T13:51:46.558Z,3.10
2022-10-04T13:54:32.609Z,2.65
2022-10-04T13:57:22.379Z,3.20
2022-10-04T14:00:07.417Z,4.00
2022-10-04T14:02:56.930Z,3.03
2022-10-04T14:05:25.489Z,3.20
2022-10-04T14:08:11.419Z,2.90
2022-10-04T14:10:52.279Z,3.38
2022-10-04T14:13:38.865Z,3.08
2022-10-04T14:16:07.090Z,3.47
2022-10-04T14:18:34.985Z,2.97
2022-10-04T14:21:21.511Z,3.55
2022-10-04T14:24:08.194Z,7.90
2022-10-04T14:26:46.557Z,4.60
2022-10-04T14:29:17.884Z,2.85
2022-10-04T14:32:04.469Z,3.20
2022-10-04T14:34:42.054Z,2.92
2022-10-04T14:37:10.177Z,2.30
2022-10-04T14:40:01.382Z,3.38
2022-10-04T14:42:58.270Z,3.35
2022-10-04T14:45:49.486Z,3.15
2022-10-04T14:48:36.170Z,3.35
2022-10-04T14:51:12.850Z,3.00
2022-10-04T14:54:03.821Z,2.72
2022-10-04T14:56:41.912Z,3.03
2022-10-04T14:59:16.848Z,3.78
2022-10-04T15:02:05.524Z,3.13
2022-10-04T15:04:52.239Z,3.17
2022-10-04T15:07:24.393Z,5.68
2022-10-04T15:10:11.636Z,3.65
2022-10-04T15:13:05.794Z,3.53
2022-10-04T15:15:37.612Z,3.75
2022-10-04T15:18:12.821Z,3.67
2022-10-04T15:20:59.652Z,3.53
2022-10-04T15:23:34.918Z,2.55
2022-10-04T15:26:14.689Z,3.28
2022-10-04T15:28:51.929Z,3.58
2022-10-04T15:31:27.086Z,3.67
2022-10-04T15:34:07.476Z,3.00
2022-10-04T15:36:39.586Z,3.17
2022-10-04T15:39:27.786Z,3.58
2022-10-04T15:41:59.618Z,3.65
2022-10-04T15:44:27.545Z,2.97
2022-10-04T15:47:07.281Z,3.15
2022-10-04T15:49:53.923Z,8.70
2022-10-04T15:52:27.848Z,4.65
2022-10-04T15:55:12.236Z,3.70
2022-10-04T15:57:40.501Z,3.42
2022-10-04T16:00:25.412Z,3.00
2022-10-04T16:03:11.023Z,3.38
2022-10-04T16:05:47.536Z,3.20
2022-10-04T16:08:30.784Z,2.80
2022-10-04T16:11:01.425Z,3.35
2022-10-04T16:14:22.361Z,5.00
2022-10-04T16:17:35.885Z,3.00
2022-10-04T16:20:27.622Z,3.88
2022-10-04T16:23:22.756Z,3.28
2022-10-04T16:25:59.274Z,3.33
2022-10-04T16:28:46.153Z,3.92
2022-10-04T16:31:40.450Z,3.83
2022-10-04T16:34:26.442Z,3.63
2022-10-04T16:37:26.829Z,4.20
2022-10-04T16:40:13.128Z,5.35
2022-10-04T16:42:42.469Z,4.70
2022-10-04T16:45:11.741Z,4.97
2022-10-04T16:47:48.942Z,4.78
2022-10-04T16:50:37.794Z,5.25
2022-10-04T16:53:24.508Z,5.35
2022-10-04T16:55:57.686Z,5.22
2022-10-04T16:58:28.781Z,5.35
2022-10-04T17:01:15.529Z,5.60
2022-10-04T17:03:49.081Z,4.63
2022-10-04T17:06:17.332Z,5.20
2022-10-04T17:08:49.705Z,4.82
2022-10-04T17:11:36.064Z,5.70
2022-10-04T17:14:22.257Z,5.07
2022-10-04T17:16:50.251Z,4.68
2022-10-04T17:19:42.325Z,4.65
2022-10-04T17:22:12.848Z,4.32
2022-10-04T17:24:40.807Z,3.65
2022-10-04T17:27:15.145Z,4.22
2022-10-04T17:29:53.632Z,7.22
2022-10-04T17:32:27.333Z,8.48
2022-10-04T17:35:19.033Z,5.32
2022-10-04T17:37:54.827Z,7.07
2022-10-04T17:40:30.056Z,5.30
2022-10-04T17:43:08.023Z,4.35
2022-10-04T17:45:43.406Z,4.53
2022-10-04T17:48:32.884Z,4.50
2022-10-04T17:51:21.210Z,4.75
2022-10-04T17:54:10.340Z,4.63
2022-10-04T17:56:43.525Z,5.47
2022-10-04T17:59:14.078Z,4.78
2022-10-04T18:01:46.415Z,19.85
2022-10-04T18:04:23.772Z,9.82
2022-10-04T18:06:59.669Z,7.03
2022-10-04T18:09:28.152Z,6.90
2022-10-04T18:11:59.129Z,5.65
2022-10-04T18:14:31.065Z,4.95
2022-10-04T18:17:03.269Z,5.72
2022-10-04T18:19:41.728Z,5.18
2022-10-04T18:22:14.960Z,5.90
2022-10-04T18:24:48.055Z,6.68
2022-10-04T18:27:21.889Z,5.75
2022-10-04T18:30:03.292Z,4.95
2022-10-04T18:32:34.894Z,5.55
2022-10-04T18:35:21.754Z,4.38
2022-10-04T18:37:50.916Z,5.40
2022-10-04T18:40:19.551Z,4.32
2022-10-04T18:42:53.374Z,4.55
2022-10-04T18:45:23.842Z,5.68
2022-10-04T18:47:53.655Z,5.18
2022-10-04T18:50:21.794Z,6.68
2022-10-04T18:53:13.490Z,6.05
2022-10-04T18:56:00.025Z,6.28
2022-10-04T18:58:55.528Z,6.03
2022-10-04T19:02:01.137Z,5.25
2022-10-04T19:04:50.220Z,7.15
2022-10-04T19:07:18.384Z,7.38
2022-10-04T19:09:46.477Z,7.75
2022-10-04T19:12:17.591Z,10.40
2022-10-04T19:14:53.511Z,15.32
2022-10-04T19:17:36.788Z,18.08
2022-10-04T19:20:18.692Z,11.25
2022-10-04T19:22:59.571Z,9.43
2022-10-04T19:25:39.309Z,10.15
2022-10-04T19:28:21.145Z,9.50
2022-10-04T19:31:00.922Z,9.30
2022-10-04T19:33:35.499Z,9.68
2022-10-04T19:36:22.914Z,9.93
2022-10-04T19:39:12.527Z,9.30
2022-10-04T19:41:59.732Z,16.17
2022-10-04T19:45:03.499Z,10.73
2022-10-04T19:47:51.142Z,9.02
2022-10-04T19:50:21.102Z,8.13
2022-10-04T19:52:54.359Z,7.00
2022-10-04T19:55:24.991Z,7.72
2022-10-04T19:58:04.963Z,7.38
2022-10-04T20:00:35.691Z,6.68
2022-10-04T20:03:11.016Z,6.22
2022-10-04T20:05:57.782Z,6.53
2022-10-04T20:08:45.163Z,6.57
2022-10-04T20:11:22.849Z,6.38
2022-10-04T20:14:07.134Z,5.30
2022-10-04T20:16:47.834Z,5.70
2022-10-04T20:19:22.486Z,6.32
2022-10-04T20:21:51.049Z,5.75
2022-10-04T20:24:39.230Z,5.80
2022-10-04T20:27:27.903Z,5.40
2022-10-04T20:29:56.660Z,6.07
2022-10-04T20:32:27.875Z,6.53
2022-10-04T20:34:56.589Z,5.57
2022-10-04T20:38:27.416Z,5.78
2022-10-04T20:40:50.213Z,6.20
2022-10-04T20:43:18.389Z,6.38
2022-10-04T20:45:47.392Z,6.18
2022-10-04T20:48:18.335Z,6.97
2022-10-04T20:50:49.467Z,6.53
2022-10-04T20:53:22.110Z,5.57
2022-10-04T20:55:51.398Z,6.28
2022-10-04T20:58:32.197Z,6.35
2022-10-04T21:01:02.706Z,5.60
2022-10-04T21:03:38.463Z,5.75
2022-10-04T21:06:09.205Z,6.22
2022-10-04T21:08:38.589Z,6.47
2022-10-04T21:11:06.931Z,6.65
2022-10-04T21:13:55.308Z,7.18
2022-10-04T21:16:41.986Z,6.07
2022-10-04T21:19:29.370Z,6.53
2022-10-04T21:21:58.462Z,6.60
2022-10-04T21:24:35.602Z,6.60
2022-10-04T21:27:04.085Z,6.47
2022-10-04T21:29:32.396Z,8.07
2022-10-04T21:32:00.804Z,6.68
2022-10-04T21:34:51.958Z,7.68
2022-10-04T21:37:19.035Z,6.78
2022-10-04T21:39:47.990Z,7.32
2022-10-04T21:42:16.816Z,7.05
2022-10-04T21:44:45.539Z,7.13
2022-10-04T21:47:13.780Z,8.13
2022-10-04T21:49:55.059Z,7.30
2022-10-04T21:52:23.421Z,8.18
2022-10-04T21:54:54.287Z,7.55
2022-10-04T21:57:24.144Z,7.30
2022-10-04T21:59:53.537Z,6.47
2022-10-04T22:02:21.710Z,6.82
2022-10-04T22:04:50.315Z,6.53
2022-10-04T22:07:19.367Z,7.05
2022-10-04T22:09:50.901Z,6.85
2022-10-04T22:12:19.550Z,7.05
2022-10-04T22:14:50.019Z,6.53
2022-10-04T22:17:18.361Z,7.32
2022-10-04T22:19:52.923Z,6.65
2022-10-04T22:22:22.289Z,6.80
2022-10-04T22:24:52.777Z,6.25
2022-10-04T22:27:24.985Z,7.47
2022-10-04T22:29:55.993Z,6.47
2022-10-04T22:32:30.751Z,6.10
2022-10-04T22:35:01.360Z,5.57
2022-10-04T22:37:36.517Z,6.30
2022-10-04T22:40:05.612Z,6.10
2022-10-04T22:42:45.886Z,6.03
2022-10-04T22:45:44.282Z,6.47
2022-10-04T22:48:16.248Z,6.80
2022-10-04T22:50:45.966Z,5.68
2022-10-04T22:53:17.036Z,6.57
2022-10-04T22:55:47.121Z,5.25
2022-10-04T22:58:20.956Z,6.50
2022-10-04T23:00:50.240Z,6.25
2022-10-04T23:03:31.801Z,5.95
2022-10-04T23:06:03.946Z,5.82
2022-10-04T23:08:37.120Z,7.13
2022-10-04T23:11:06.451Z,5.90
2022-10-04T23:13:36.796Z,5.68
2022-10-04T23:16:14.837Z,6.38
2022-10-04T23:18:45.821Z,5.90
2022-10-04T23:21:21.637Z,5.85
2022-10-04T23:23:52.792Z,6.22
2022-10-04T23:26:25.584Z,6.22
2022-10-04T23:28:55.062Z,6.45
2022-10-04T23:31:25.053Z,6.32
2022-10-04T23:33:54.349Z,7.15
2022-10-04T23:36:24.741Z,6.03
2022-10-04T23:38:55.655Z,6.63
2022-10-04T23:41:24.106Z,6.72
2022-10-04T23:43:52.720Z,6.07
2022-10-04T23:46:22.997Z,6.68
2022-10-04T23:48:51.656Z,6.00
2022-10-04T23:51:20.273Z,6.45
2022-10-04T23:53:50.769Z,6.63
2022-10-04T23:56:24.732Z,6.65
2022-10-04T23:58:55.973Z,6.95
